sensor_id;sensor_type;location;lat;lon;timestamp;P1;durP1;ratioP1;P2;durP2;ratioP2
7989;SDS011;4040;42.848;23.034;2022-11-11T00:05:27;31.17;;;18.03;;
7989;SDS011;4040;42.848;23.034;2022-11-11T00:11:17;31.07;;;18.83;;
7989;SDS011;4040;42.848;23.034;2022-11-11T00:21:27;32.77;;;18.73;;
7989;SDS011;4040;42.848;23.034;2022-11-11T00:27:34;35.73;;;20.23;;
7989;SDS011;4040;42.848;23.034;2022-11-11T00:33:25;34.57;;;19.87;;
7989;SDS011;4040;42.848;23.034;2022-11-11T00:39:14;39.53;;;21.40;;
7989;SDS011;4040;42.848;23.034;2022-11-11T00:45:04;36.80;;;21.47;;
7989;SDS011;4040;42.848;23.034;2022-11-11T00:50:54;39.23;;;21.53;;
7989;SDS011;4040;42.848;23.034;2022-11-11T00:56:45;42.15;;;24.00;;
7989;SDS011;4040;42.848;23.034;2022-11-11T01:02:35;42.90;;;23.50;;
7989;SDS011;4040;42.848;23.034;2022-11-11T01:08:24;48.10;;;25.10;;
7989;SDS011;4040;42.848;23.034;2022-11-11T01:14:12;45.07;;;24.80;;
7989;SDS011;4040;42.848;23.034;2022-11-11T01:20:33;50.67;;;27.67;;
7989;SDS011;4040;42.848;23.034;2022-11-11T01:26:25;48.90;;;26.97;;
7989;SDS011;4040;42.848;23.034;2022-11-11T01:32:15;49.80;;;28.60;;
7989;SDS011;4040;42.848;23.034;2022-11-11T01:38:05;49.33;;;27.30;;
7989;SDS011;4040;42.848;23.034;2022-11-11T01:43:54;47.50;;;27.73;;
7989;SDS011;4040;42.848;23.034;2022-11-11T01:49:45;55.60;;;29.23;;
7989;SDS011;4040;42.848;23.034;2022-11-11T01:55:41;60.80;;;32.50;;
7989;SDS011;4040;42.848;23.034;2022-11-11T02:01:30;59.40;;;31.00;;
7989;SDS011;4040;42.848;23.034;2022-11-11T02:07:20;60.60;;;31.57;;
7989;SDS011;4040;42.848;23.034;2022-11-11T02:13:11;58.73;;;32.13;;
7989;SDS011;4040;42.848;23.034;2022-11-11T02:19:20;61.50;;;32.90;;
7989;SDS011;4040;42.848;23.034;2022-11-11T02:25:21;65.87;;;33.73;;
7989;SDS011;4040;42.848;23.034;2022-11-11T02:31:12;63.10;;;33.10;;
7989;SDS011;4040;42.848;23.034;2022-11-11T02:37:02;67.63;;;33.57;;
7989;SDS011;4040;42.848;23.034;2022-11-11T02:42:55;59.67;;;32.60;;
7989;SDS011;4040;42.848;23.034;2022-11-11T02:48:43;59.93;;;34.00;;
7989;SDS011;4040;42.848;23.034;2022-11-11T02:54:32;61.40;;;34.03;;
7989;SDS011;4040;42.848;23.034;2022-11-11T03:00:22;64.53;;;34.77;;
7989;SDS011;4040;42.848;23.034;2022-11-11T03:06:10;66.07;;;33.90;;
7989;SDS011;4040;42.848;23.034;2022-11-11T03:11:58;66.30;;;34.10;;
7989;SDS011;4040;42.848;23.034;2022-11-11T03:17:49;67.47;;;33.50;;
7989;SDS011;4040;42.848;23.034;2022-11-11T03:20:17;64.13;;;33.73;;
7989;SDS011;4040;42.848;23.034;2022-11-11T03:26:24;59.57;;;31.43;;
7989;SDS011;4040;42.848;23.034;2022-11-11T03:32:12;59.13;;;32.23;;
7989;SDS011;4040;42.848;23.034;2022-11-11T03:38:02;57.37;;;30.60;;
7989;SDS011;4040;42.848;23.034;2022-11-11T03:44:11;56.90;;;30.63;;
7989;SDS011;4040;42.848;23.034;2022-11-11T03:49:59;59.77;;;32.33;;
7989;SDS011;4040;42.848;23.034;2022-11-11T03:55:50;59.70;;;31.47;;
7989;SDS011;4040;42.848;23.034;2022-11-11T04:01:39;56.03;;;30.47;;
7989;SDS011;4040;42.848;23.034;2022-11-11T04:07:53;54.23;;;28.87;;
7989;SDS011;4040;42.848;23.034;2022-11-11T04:10:34;49.40;;;28.90;;
7989;SDS011;4040;42.848;23.034;2022-11-11T04:16:25;54.53;;;28.60;;
7989;SDS011;4040;42.848;23.034;2022-11-11T04:25:55;43.40;;;23.80;;
7989;SDS011;4040;42.848;23.034;2022-11-11T04:31:49;38.67;;;22.90;;
7989;SDS011;4040;42.848;23.034;2022-11-11T04:37:51;34.20;;;20.57;;
7989;SDS011;4040;42.848;23.034;2022-11-11T04:44:00;28.87;;;18.40;;
7989;SDS011;4040;42.848;23.034;2022-11-11T04:50:08;29.73;;;17.03;;
7989;SDS011;4040;42.848;23.034;2022-11-11T04:55:56;33.70;;;18.90;;
7989;SDS011;4040;42.848;23.034;2022-11-11T05:02:02;27.43;;;17.90;;
7989;SDS011;4040;42.848;23.034;2022-11-11T05:08:10;28.53;;;17.23;;
7989;SDS011;4040;42.848;23.034;2022-11-11T05:14:16;37.27;;;21.27;;
7989;SDS011;4040;42.848;23.034;2022-11-11T05:20:22;38.00;;;21.07;;
7989;SDS011;4040;42.848;23.034;2022-11-11T05:23:17;35.43;;;20.40;;
7989;SDS011;4040;42.848;23.034;2022-11-11T05:29:05;31.77;;;19.70;;
7989;SDS011;4040;42.848;23.034;2022-11-11T05:34:54;29.80;;;18.10;;
7989;SDS011;4040;42.848;23.034;2022-11-11T05:40:44;34.90;;;19.57;;
7989;SDS011;4040;42.848;23.034;2022-11-11T05:46:32;40.20;;;21.50;;
7989;SDS011;4040;42.848;23.034;2022-11-11T05:52:21;43.60;;;21.67;;
7989;SDS011;4040;42.848;23.034;2022-11-11T05:58:11;38.97;;;20.83;;
7989;SDS011;4040;42.848;23.034;2022-11-11T06:04:00;32.67;;;19.60;;
7989;SDS011;4040;42.848;23.034;2022-11-11T06:09:49;34.67;;;20.20;;
7989;SDS011;4040;42.848;23.034;2022-11-11T06:15:39;34.23;;;16.20;;
7989;SDS011;4040;42.848;23.034;2022-11-11T06:21:27;32.57;;;19.73;;
7989;SDS011;4040;42.848;23.034;2022-11-11T06:27:16;43.93;;;21.00;;
7989;SDS011;4040;42.848;23.034;2022-11-11T06:33:06;29.77;;;16.87;;
7989;SDS011;4040;42.848;23.034;2022-11-11T06:38:55;33.77;;;16.17;;
7989;SDS011;4040;42.848;23.034;2022-11-11T06:44:44;38.07;;;19.63;;
7989;SDS011;4040;42.848;23.034;2022-11-11T06:50:34;28.43;;;14.87;;
7989;SDS011;4040;42.848;23.034;2022-11-11T06:56:23;27.53;;;15.63;;
7989;SDS011;4040;42.848;23.034;2022-11-11T07:02:22;25.60;;;14.77;;
7989;SDS011;4040;42.848;23.034;2022-11-11T07:08:13;24.57;;;13.83;;
7989;SDS011;4040;42.848;23.034;2022-11-11T07:14:03;32.13;;;14.87;;
7989;SDS011;4040;42.848;23.034;2022-11-11T07:19:52;22.10;;;13.50;;
7989;SDS011;4040;42.848;23.034;2022-11-11T07:22:20;28.53;;;15.83;;
7989;SDS011;4040;42.848;23.034;2022-11-11T07:28:10;25.33;;;14.70;;
7989;SDS011;4040;42.848;23.034;2022-11-11T07:33:59;23.77;;;14.50;;
7989;SDS011;4040;42.848;23.034;2022-11-11T07:39:47;27.77;;;15.20;;
7989;SDS011;4040;42.848;23.034;2022-11-11T07:45:37;24.23;;;13.93;;
7989;SDS011;4040;42.848;23.034;2022-11-11T07:51:26;20.87;;;12.63;;
7989;SDS011;4040;42.848;23.034;2022-11-11T07:57:15;24.63;;;13.77;;
7989;SDS011;4040;42.848;23.034;2022-11-11T08:03:05;27.97;;;13.53;;
7989;SDS011;4040;42.848;23.034;2022-11-11T08:08:53;25.50;;;13.80;;
7989;SDS011;4040;42.848;23.034;2022-11-11T08:14:42;23.13;;;12.10;;
7989;SDS011;4040;42.848;23.034;2022-11-11T08:20:32;17.67;;;11.50;;
7989;SDS011;4040;42.848;23.034;2022-11-11T08:26:21;15.30;;;8.45;;
7989;SDS011;4040;42.848;23.034;2022-11-11T08:32:10;13.15;;;8.38;;
7989;SDS011;4040;42.848;23.034;2022-11-11T08:38:01;11.18;;;7.53;;
7989;SDS011;4040;42.848;23.034;2022-11-11T08:43:50;31.48;;;17.95;;
7989;SDS011;4040;42.848;23.034;2022-11-11T08:49:40;33.85;;;17.55;;
7989;SDS011;4040;42.848;23.034;2022-11-11T08:55:30;119.45;;;46.88;;
7989;SDS011;4040;42.848;23.034;2022-11-11T09:01:39;11.10;;;8.07;;
7989;SDS011;4040;42.848;23.034;2022-11-11T09:07:28;10.47;;;7.70;;
7989;SDS011;4040;42.848;23.034;2022-11-11T09:13:18;13.23;;;9.03;;
7989;SDS011;4040;42.848;23.034;2022-11-11T09:19:06;9.87;;;7.67;;
7989;SDS011;4040;42.848;23.034;2022-11-11T09:28:59;11.23;;;8.30;;
7989;SDS011;4040;42.848;23.034;2022-11-11T09:34:47;11.93;;;7.43;;
7989;SDS011;4040;42.848;23.034;2022-11-11T09:40:40;12.20;;;8.10;;
7989;SDS011;4040;42.848;23.034;2022-11-11T09:46:56;11.47;;;7.97;;
7989;SDS011;4040;42.848;23.034;2022-11-11T09:52:52;13.13;;;7.50;;
7989;SDS011;4040;42.848;23.034;2022-11-11T09:58:47;9.83;;;7.00;;
7989;SDS011;4040;42.848;23.034;2022-11-11T10:04:44;9.60;;;7.00;;
7989;SDS011;4040;42.848;23.034;2022-11-11T10:10:41;9.57;;;6.83;;
7989;SDS011;4040;42.848;23.034;2022-11-11T10:16:35;8.43;;;6.57;;
7989;SDS011;4040;42.848;23.034;2022-11-11T10:22:34;10.05;;;5.80;;
7989;SDS011;4040;42.848;23.034;2022-11-11T10:28:24;5.38;;;4.28;;
7989;SDS011;4040;42.848;23.034;2022-11-11T10:34:17;10.52;;;6.03;;
7989;SDS011;4040;42.848;23.034;2022-11-11T10:40:11;10.63;;;6.87;;
7989;SDS011;4040;42.848;23.034;2022-11-11T10:46:06;13.30;;;7.30;;
7989;SDS011;4040;42.848;23.034;2022-11-11T10:52:02;14.83;;;5.67;;
7989;SDS011;4040;42.848;23.034;2022-11-11T10:57:58;10.37;;;5.37;;
7989;SDS011;4040;42.848;23.034;2022-11-11T11:03:54;12.18;;;4.75;;
7989;SDS011;4040;42.848;23.034;2022-11-11T11:09:49;28.67;;;12.43;;
7989;SDS011;4040;42.848;23.034;2022-11-11T11:15:43;12.48;;;5.25;;
7989;SDS011;4040;42.848;23.034;2022-11-11T11:21:50;6.28;;;4.65;;
7989;SDS011;4040;42.848;23.034;2022-11-11T11:38:15;7.15;;;4.00;;
7989;SDS011;4040;42.848;23.034;2022-11-11T11:44:17;13.30;;;4.43;;
7989;SDS011;4040;42.848;23.034;2022-11-11T11:50:20;5.43;;;3.75;;
7989;SDS011;4040;42.848;23.034;2022-11-11T11:56:19;8.40;;;4.95;;
7989;SDS011;4040;42.848;23.034;2022-11-11T12:02:20;11.43;;;5.85;;
7989;SDS011;4040;42.848;23.034;2022-11-11T12:08:30;15.10;;;8.43;;
7989;SDS011;4040;42.848;23.034;2022-11-11T12:20:45;8.73;;;5.27;;
7989;SDS011;4040;42.848;23.034;2022-11-11T12:26:41;16.83;;;7.37;;
7989;SDS011;4040;42.848;23.034;2022-11-11T12:32:44;18.63;;;6.23;;
7989;SDS011;4040;42.848;23.034;2022-11-11T12:38:51;30.23;;;8.53;;
7989;SDS011;4040;42.848;23.034;2022-11-11T12:44:48;16.00;;;6.40;;
7989;SDS011;4040;42.848;23.034;2022-11-11T12:50:43;14.87;;;8.63;;
7989;SDS011;4040;42.848;23.034;2022-11-11T12:56:41;10.50;;;6.80;;
7989;SDS011;4040;42.848;23.034;2022-11-11T13:02:50;24.50;;;7.73;;
7989;SDS011;4040;42.848;23.034;2022-11-11T13:08:54;24.93;;;7.80;;
7989;SDS011;4040;42.848;23.034;2022-11-11T13:14:58;19.70;;;10.53;;
7989;SDS011;4040;42.848;23.034;2022-11-11T13:20:53;20.27;;;13.43;;
7989;SDS011;4040;42.848;23.034;2022-11-11T13:26:46;22.93;;;10.73;;
7989;SDS011;4040;42.848;23.034;2022-11-11T13:37:56;21.07;;;9.33;;
7989;SDS011;4040;42.848;23.034;2022-11-11T13:43:45;16.77;;;9.80;;
7989;SDS011;4040;42.848;23.034;2022-11-11T13:46:27;13.70;;;8.07;;
7989;SDS011;4040;42.848;23.034;2022-11-11T13:52:20;26.90;;;9.93;;
7989;SDS011;4040;42.848;23.034;2022-11-11T13:58:19;16.40;;;9.17;;
7989;SDS011;4040;42.848;23.034;2022-11-11T14:18:44;45.17;;;14.80;;
7989;SDS011;4040;42.848;23.034;2022-11-11T14:24:34;50.70;;;18.70;;
7989;SDS011;4040;42.848;23.034;2022-11-11T14:30:28;60.13;;;24.13;;
7989;SDS011;4040;42.848;23.034;2022-11-11T14:36:26;35.10;;;15.80;;
7989;SDS011;4040;42.848;23.034;2022-11-11T14:42:43;38.30;;;16.97;;
7989;SDS011;4040;42.848;23.034;2022-11-11T14:48:52;28.30;;;12.20;;
7989;SDS011;4040;42.848;23.034;2022-11-11T14:55:02;21.87;;;13.10;;
7989;SDS011;4040;42.848;23.034;2022-11-11T15:00:58;26.07;;;12.17;;
7989;SDS011;4040;42.848;23.034;2022-11-11T15:06:52;20.17;;;11.60;;
7989;SDS011;4040;42.848;23.034;2022-11-11T15:12:54;23.83;;;12.83;;
7989;SDS011;4040;42.848;23.034;2022-11-11T15:19:09;19.13;;;11.17;;
7989;SDS011;4040;42.848;23.034;2022-11-11T15:25:16;35.27;;;15.07;;
7989;SDS011;4040;42.848;23.034;2022-11-11T15:31:19;22.37;;;13.93;;
7989;SDS011;4040;42.848;23.034;2022-11-11T15:37:15;21.87;;;13.83;;
7989;SDS011;4040;42.848;23.034;2022-11-11T15:43:05;24.53;;;13.40;;
7989;SDS011;4040;42.848;23.034;2022-11-11T15:49:00;29.83;;;13.20;;
7989;SDS011;4040;42.848;23.034;2022-11-11T15:54:48;27.53;;;12.27;;
7989;SDS011;4040;42.848;23.034;2022-11-11T16:00:37;28.93;;;14.67;;
7989;SDS011;4040;42.848;23.034;2022-11-11T16:06:28;29.67;;;14.43;;
7989;SDS011;4040;42.848;23.034;2022-11-11T16:12:17;29.50;;;15.67;;
7989;SDS011;4040;42.848;23.034;2022-11-11T16:18:31;35.07;;;17.50;;
7989;SDS011;4040;42.848;23.034;2022-11-11T16:24:29;23.70;;;15.57;;
7989;SDS011;4040;42.848;23.034;2022-11-11T16:30:27;22.97;;;12.80;;
7989;SDS011;4040;42.848;23.034;2022-11-11T16:36:19;23.93;;;14.70;;
7989;SDS011;4040;42.848;23.034;2022-11-11T16:42:16;26.07;;;17.40;;
7989;SDS011;4040;42.848;23.034;2022-11-11T16:48:09;42.60;;;24.67;;
7989;SDS011;4040;42.848;23.034;2022-11-11T16:54:26;28.20;;;18.17;;
7989;SDS011;4040;42.848;23.034;2022-11-11T17:00:20;26.17;;;15.40;;
7989;SDS011;4040;42.848;23.034;2022-11-11T17:06:10;24.57;;;14.83;;
7989;SDS011;4040;42.848;23.034;2022-11-11T17:11:59;38.73;;;24.20;;
7989;SDS011;4040;42.848;23.034;2022-11-11T17:17:49;35.80;;;20.97;;
7989;SDS011;4040;42.848;23.034;2022-11-11T17:23:38;40.33;;;18.73;;
7989;SDS011;4040;42.848;23.034;2022-11-11T17:29:27;28.93;;;17.27;;
7989;SDS011;4040;42.848;23.034;2022-11-11T17:35:17;28.80;;;16.30;;
7989;SDS011;4040;42.848;23.034;2022-11-11T17:41:05;32.13;;;17.30;;
7989;SDS011;4040;42.848;23.034;2022-11-11T17:46:55;34.87;;;16.13;;
7989;SDS011;4040;42.848;23.034;2022-11-11T17:52:45;32.80;;;16.97;;
7989;SDS011;4040;42.848;23.034;2022-11-11T17:58:34;31.77;;;16.93;;
7989;SDS011;4040;42.848;23.034;2022-11-11T18:04:23;34.73;;;19.63;;
7989;SDS011;4040;42.848;23.034;2022-11-11T18:10:13;30.13;;;16.07;;
7989;SDS011;4040;42.848;23.034;2022-11-11T18:20:14;28.00;;;16.93;;
7989;SDS011;4040;42.848;23.034;2022-11-11T18:26:04;31.37;;;17.20;;
7989;SDS011;4040;42.848;23.034;2022-11-11T18:31:54;31.10;;;18.03;;
7989;SDS011;4040;42.848;23.034;2022-11-11T18:37:43;36.23;;;17.37;;
7989;SDS011;4040;42.848;23.034;2022-11-11T18:43:33;31.03;;;17.60;;
7989;SDS011;4040;42.848;23.034;2022-11-11T18:49:25;33.07;;;18.80;;
7989;SDS011;4040;42.848;23.034;2022-11-11T18:55:14;50.33;;;24.83;;
7989;SDS011;4040;42.848;23.034;2022-11-11T19:01:08;47.20;;;26.03;;
7989;SDS011;4040;42.848;23.034;2022-11-11T19:06:58;47.07;;;25.30;;
7989;SDS011;4040;42.848;23.034;2022-11-11T19:12:47;62.70;;;32.33;;
7989;SDS011;4040;42.848;23.034;2022-11-11T19:22:58;52.23;;;25.30;;
7989;SDS011;4040;42.848;23.034;2022-11-11T19:28:47;78.77;;;36.80;;
7989;SDS011;4040;42.848;23.034;2022-11-11T19:34:36;55.53;;;29.23;;
7989;SDS011;4040;42.848;23.034;2022-11-11T19:40:27;35.33;;;22.23;;
7989;SDS011;4040;42.848;23.034;2022-11-11T19:46:15;39.57;;;23.77;;
7989;SDS011;4040;42.848;23.034;2022-11-11T19:52:05;48.73;;;27.80;;
7989;SDS011;4040;42.848;23.034;2022-11-11T19:57:55;29.57;;;17.57;;
7989;SDS011;4040;42.848;23.034;2022-11-11T20:03:43;28.67;;;17.80;;
7989;SDS011;4040;42.848;23.034;2022-11-11T20:09:32;30.73;;;18.73;;
7989;SDS011;4040;42.848;23.034;2022-11-11T20:15:23;33.17;;;17.87;;
7989;SDS011;4040;42.848;23.034;2022-11-11T20:25:14;31.40;;;17.13;;
7989;SDS011;4040;42.848;23.034;2022-11-11T20:31:07;29.97;;;17.77;;
7989;SDS011;4040;42.848;23.034;2022-11-11T20:36:57;31.50;;;18.63;;
7989;SDS011;4040;42.848;23.034;2022-11-11T20:42:45;31.37;;;16.70;;
7989;SDS011;4040;42.848;23.034;2022-11-11T20:48:35;28.97;;;16.63;;
7989;SDS011;4040;42.848;23.034;2022-11-11T20:54:26;27.07;;;16.37;;
7989;SDS011;4040;42.848;23.034;2022-11-11T21:00:15;30.80;;;17.10;;
7989;SDS011;4040;42.848;23.034;2022-11-11T21:06:07;35.37;;;23.27;;
7989;SDS011;4040;42.848;23.034;2022-11-11T21:11:57;44.13;;;23.73;;
7989;SDS011;4040;42.848;23.034;2022-11-11T21:17:46;37.07;;;20.97;;
7989;SDS011;4040;42.848;23.034;2022-11-11T21:27:57;47.53;;;21.43;;
7989;SDS011;4040;42.848;23.034;2022-11-11T21:33:50;42.53;;;22.30;;
7989;SDS011;4040;42.848;23.034;2022-11-11T21:39:39;41.50;;;20.67;;
7989;SDS011;4040;42.848;23.034;2022-11-11T21:45:29;43.30;;;22.33;;
7989;SDS011;4040;42.848;23.034;2022-11-11T21:51:19;32.43;;;17.37;;
7989;SDS011;4040;42.848;23.034;2022-11-11T21:57:09;29.27;;;15.40;;
7989;SDS011;4040;42.848;23.034;2022-11-11T22:02:59;30.17;;;16.93;;
7989;SDS011;4040;42.848;23.034;2022-11-11T22:08:49;34.57;;;18.20;;
7989;SDS011;4040;42.848;23.034;2022-11-11T22:14:38;37.00;;;20.60;;
7989;SDS011;4040;42.848;23.034;2022-11-11T22:20:28;34.93;;;19.80;;
7989;SDS011;4040;42.848;23.034;2022-11-11T22:30:38;33.90;;;18.10;;
7989;SDS011;4040;42.848;23.034;2022-11-11T22:36:29;36.30;;;18.67;;
7989;SDS011;4040;42.848;23.034;2022-11-11T22:42:18;31.20;;;18.00;;
7989;SDS011;4040;42.848;23.034;2022-11-11T22:48:07;37.60;;;19.33;;
7989;SDS011;4040;42.848;23.034;2022-11-11T22:53:58;41.67;;;19.63;;
7989;SDS011;4040;42.848;23.034;2022-11-11T22:59:48;32.87;;;17.83;;
7989;SDS011;4040;42.848;23.034;2022-11-11T23:08:30;32.00;;;18.33;;
7989;SDS011;4040;42.848;23.034;2022-11-11T23:14:19;33.37;;;18.87;;
7989;SDS011;4040;42.848;23.034;2022-11-11T23:20:09;35.30;;;19.00;;
7989;SDS011;4040;42.848;23.034;2022-11-11T23:26:01;40.40;;;18.87;;
7989;SDS011;4040;42.848;23.034;2022-11-11T23:31:51;34.33;;;17.47;;
7989;SDS011;4040;42.848;23.034;2022-11-11T23:37:40;34.37;;;18.43;;
7989;SDS011;4040;42.848;23.034;2022-11-11T23:43:30;35.00;;;20.03;;
7989;SDS011;4040;42.848;23.034;2022-11-11T23:49:19;29.47;;;18.50;;
7989;SDS011;4040;42.848;23.034;2022-11-11T23:55:08;36.53;;;18.73;;
